Flight Track Log - Related Links

Times and Time Zones

All times are in EDT time to prevent confusion due to time zone crossing. See the DAL1515 flight status page for this flight to view local times or setup timezone preferences in your user account.

Time Position Orientation Groundspeed Altitude Reporting Facility
EDT Latitude Longitude Course Direction KTS MPH feet Rate Location/Type
Thu 08:16:54 PM 33.6478 -84.3756 North 444 511 2,300  Level Atlanta Center
Thu 08:17:54 PM 33.6625 -84.2908 78° East 333 383 4,800 2,700 Climbing Atlanta Center
Thu 08:18:54 PM 33.7106 -84.2186 51° Northeast 284 327 7,700 2,850 Climbing Atlanta Center
Thu 08:19:00 PM 33.8543 -84.1876 320° Northwest  Level FlightAware Approximate
Thu 08:19:54 PM 33.8025 -84.2314 353° North 332 382 10,500  Level Atlanta Center
Thu 08:20:00 PM 33.9610 -84.2667 North  Level FlightAware Approximate
Thu 08:20:54 PM 33.8964 -84.2617 345° North 351 404 13,000  Level Atlanta Center
Thu 08:21:00 PM 34.0914 -84.2667 North  Level FlightAware Approximate
Thu 08:21:54 PM 33.9819 -84.2767 352° North 356 410 14,800  Level Atlanta Center
Thu 08:22:00 PM 34.2218 -84.2667 North  Level FlightAware Approximate
Thu 08:22:54 PM 34.0944 -84.2797 359° North 366 421 15,800  Level Atlanta Center
Thu 08:23:54 PM 34.2344 -84.2800 360° North 440 506 17,400 1,600 Climbing Atlanta Center
Thu 08:24:54 PM 34.3639 -84.2603 North 457 526 19,000 1,700 Climbing Atlanta Center
Thu 08:25:54 PM 34.4953 -84.2303 11° North 472 543 20,800 1,600 Climbing Atlanta Center
Thu 08:26:54 PM 34.6289 -84.1978 11° North 477 549 22,200 1,250 Climbing Atlanta Center
Thu 08:27:54 PM 34.7481 -84.1728 10° North 483 556 23,300 1,200 Climbing Atlanta Center
Thu 08:28:54 PM 34.8858 -84.1375 12° North 489 563 24,600 1,450 Climbing Atlanta Center
Thu 08:29:54 PM 35.0256 -84.1047 11° North 495 570 26,200 1,650 Climbing Atlanta Center
Thu 08:30:54 PM 35.1611 -84.0717 11° North 500 575 27,900 1,600 Climbing Atlanta Center
Thu 08:31:54 PM 35.2947 -84.0414 10° North 500 575 29,400 1,300 Climbing Atlanta Center
Thu 08:32:54 PM 35.4283 -84.0081 11° North 495 570 30,500 800 Climbing Atlanta Center
Thu 08:33:54 PM 35.5617 -83.9775 11° North 485 558 31,000 250 Climbing Atlanta Center
Thu 08:34:54 PM 35.6994 -83.9442 11° North 490 564 31,000  Level Atlanta Center
Thu 08:35:54 PM 35.8331 -83.9106 12° North 490 564 31,000  Level Atlanta Center
Thu 08:36:54 PM 35.9622 -83.8567 19° North 485 558 31,000  Level Atlanta Center
Thu 08:38:27 PM 36.1567 -83.7322 27° Northeast 490 564 31,000  Level Indianapolis Center
Thu 08:39:27 PM 36.2764 -83.6547 28° Northeast 488 562 31,000  Level Indianapolis Center
Thu 08:40:28 PM 36.3972 -83.5778 27° Northeast 489 563 31,000  Level Indianapolis Center
Thu 08:41:29 PM 36.5203 -83.5000 27° Northeast 489 563 31,000  Level Indianapolis Center
Thu 08:42:29 PM 36.6414 -83.4194 28° Northeast 490 564 31,000  Level Indianapolis Center
Thu 08:43:30 PM 36.7492 -83.3192 37° Northeast 481 554 31,000  Level Indianapolis Center
Thu 08:44:31 PM 36.8567 -83.2167 37° Northeast 482 555 31,000  Level Indianapolis Center
Thu 08:45:31 PM 36.9667 -83.1150 36° Northeast 483 556 31,000  Level Indianapolis Center
Thu 08:46:32 PM 37.0783 -83.0106 37° Northeast 489 563 31,000  Level Indianapolis Center
Thu 08:47:32 PM 37.1864 -82.9058 38° Northeast 485 558 31,000  Level Indianapolis Center
Thu 08:48:33 PM 37.2950 -82.8028 37° Northeast 484 557 31,000  Level Indianapolis Center
Thu 08:49:33 PM 37.4047 -82.6981 37° Northeast 489 563 31,000  Level Indianapolis Center
Thu 08:50:34 PM 37.5133 -82.5928 38° Northeast 490 564 31,000  Level Indianapolis Center
Thu 08:51:35 PM 37.6222 -82.4903 37° Northeast 487 560 31,000  Level Indianapolis Center
Thu 08:52:35 PM 37.7289 -82.3842 38° Northeast 487 560 31,000  Level Indianapolis Center
Thu 08:53:36 PM 37.8367 -82.2794 37° Northeast 487 560 31,000  Level Indianapolis Center
Thu 08:54:36 PM 37.9450 -82.1744 37° Northeast 488 562 31,000  Level Indianapolis Center
Thu 08:55:37 PM 38.0536 -82.0683 38° Northeast 484 557 31,000  Level Indianapolis Center
Thu 08:56:38 PM 38.1586 -81.9625 38° Northeast 481 554 31,000  Level Indianapolis Center
Thu 08:57:38 PM 38.2639 -81.8578 38° Northeast 481 554 31,000  Level Indianapolis Center
Thu 08:58:39 PM 38.3661 -81.7506 39° Northeast 478 550 31,000  Level Indianapolis Center
Thu 08:59:39 PM 38.4539 -81.6247 48° Northeast 479 551 31,000  Level Indianapolis Center
Thu 09:00:40 PM 38.5400 -81.4978 49° Northeast 478 550 31,000  Level Indianapolis Center
Thu 09:01:41 PM 38.6258 -81.3714 49° Northeast 482 555 31,000  Level Indianapolis Center
Thu 09:02:41 PM 38.7133 -81.2489 48° Northeast 473 544 31,000  Level Indianapolis Center
Thu 09:03:42 PM 38.8189 -81.0950 49° Northeast 480 552 31,000  Level Indianapolis Center
Thu 09:04:42 PM 38.9075 -80.9664 48° Northeast 483 556 31,000  Level Indianapolis Center
Thu 09:05:43 PM 38.9964 -80.8361 49° Northeast 484 557 31,000  Level Indianapolis Center
Thu 09:06:44 PM 39.0869 -80.7078 48° Northeast 484 557 31,000  Level Indianapolis Center
Thu 09:07:44 PM 39.1794 -80.5817 47° Northeast 484 557 31,000  Level Indianapolis Center
Thu 09:08:45 PM 39.2694 -80.4544 48° Northeast 481 554 31,000  Level Indianapolis Center
Thu 09:09:45 PM 39.3603 -80.3278 47° Northeast 483 556 31,000  Level Indianapolis Center
Thu 09:10:46 PM 39.4511 -80.2003 47° Northeast 482 555 31,000  Level Indianapolis Center
Thu 09:11:47 PM 39.5406 -80.0711 48° Northeast 481 554 31,000  Level Indianapolis Center
Thu 09:12:47 PM 39.6292 -79.9406 49° Northeast 481 554 31,000  Level Indianapolis Center
Thu 09:13:48 PM 39.7167 -79.8103 49° Northeast 478 550 31,000  Level Indianapolis Center
Thu 09:14:48 PM 39.8050 -79.6794 49° Northeast 481 554 31,000  Level Indianapolis Center
Thu 09:15:49 PM 39.8942 -79.5475 49° Northeast 484 557 31,000  Level Indianapolis Center
Thu 09:17:07 PM 40.0189 -79.3658 48° Northeast 473 544 31,000  Level Cleveland Center
Thu 09:18:07 PM 40.0928 -79.2506 50° Northeast 461 531 31,000  Level Cleveland Center
Thu 09:19:07 PM 40.1786 -79.1183 50° Northeast 466 536 31,000  Level Cleveland Center
Thu 09:20:07 PM 40.2644 -78.9886 49° Northeast 466 536 31,000  Level Cleveland Center
Thu 09:21:07 PM 40.3500 -78.8558 50° Northeast 466 536 31,000  Level Cleveland Center
Thu 09:22:07 PM 40.4378 -78.7253 49° Northeast 466 536 31,000  Level Cleveland Center
Thu 09:23:07 PM 40.5253 -78.6000 47° Northeast 466 536 31,000  Level Cleveland Center
Thu 09:24:07 PM 40.6083 -78.4717 50° Northeast 466 536 31,000  Level Cleveland Center
Thu 09:25:41 PM 40.7361 -78.2733 50° Northeast 476 548 31,000  Level New York Center
Thu 09:26:39 PM 40.8214 -78.1428 49° Northeast 471 542 31,000  Level New York Center
Thu 09:27:40 PM 40.9028 -78.0086 51° Northeast 471 542 31,000  Level New York Center
Thu 09:28:42 PM 40.9897 -77.8775 49° Northeast 471 542 31,000  Level New York Center
Thu 09:29:39 PM 41.0786 -77.7492 47° Northeast 471 542 31,000  Level New York Center
Thu 09:30:39 PM 41.1650 -77.6258 47° Northeast 466 536 31,000  Level New York Center
Thu 09:31:39 PM 41.2628 -77.4839 47° Northeast 471 542 31,000  Level New York Center
Thu 09:32:39 PM 41.3492 -77.3542 48° Northeast 466 536 31,000  Level New York Center
Thu 09:33:42 PM 41.4378 -77.2244 48° Northeast 466 536 31,000  Level New York Center
Thu 09:34:41 PM 41.5172 -77.1017 49° Northeast 477 549 31,000  Level New York Center
Thu 09:35:41 PM 41.6053 -76.9714 48° Northeast 477 549 31,000 -559 Level New York Center
Thu 09:36:39 PM 41.6911 -76.8406 49° Northeast 477 549 29,900 -1,424 Descending New York Center
Thu 09:37:39 PM 41.7792 -76.7067 49° Northeast 477 549 28,200 -1,694 Descending New York Center
Thu 09:40:08 PM 42.0161 -76.3528 48° Northeast 493 567 24,000 -1,206 Descending Boston Center
Thu 09:41:08 PM 42.1042 -76.2153 49° Northeast 493 567 24,000  Level Boston Center
Thu 09:42:08 PM 42.1839 -76.0689 54° Northeast 493 567 24,000  Level Boston Center
Thu 09:43:08 PM 42.2411 -75.9039 65° Northeast 488 562 24,000  Level Boston Center
Thu 09:44:08 PM 42.2858 -75.7322 71° East 482 555 24,000  Level Boston Center
Thu 09:45:08 PM 42.3217 -75.5769 73° East 474 545 24,000  Level Boston Center
Thu 09:46:08 PM 42.3658 -75.4047 71° East 474 545 24,000 -150 Level Boston Center
Thu 09:47:08 PM 42.4078 -75.2297 72° East 479 551 23,700 -1,200 Descending Boston Center
Thu 09:48:08 PM 42.4514 -75.0600 71° East 479 551 21,600 -2,633 Descending Boston Center
Thu 09:48:46 PM 42.4792 -74.9428 72° East 472 543 19,400 -2,836 Descending Boston Center
Thu 09:49:58 PM 42.5250 -74.7447 73° East 442 509 16,400 -2,590 Descending Boston Center
Thu 09:51:05 PM 42.5658 -74.5686 72° East 424 488 13,400 -2,625 Descending Boston Center
Thu 09:52:06 PM 42.5667 -74.4164 90° East 406 467 10,800 -1,587 Descending Boston Center
Thu 09:53:06 PM 42.5628 -74.2753 92° East 368 423 10,200 -1,041 Descending Boston Center
Thu 09:54:07 PM 42.5606 -74.1539 91° East 297 342 8,700 -2,066 Descending Boston Center
Thu 09:55:08 PM 42.5581 -74.0383 92° East 300 345 6,000 -2,430 Descending Boston Center
Thu 09:56:08 PM 42.5553 -73.9283 92° East 296 341 3,800 -1,450 Descending Boston Center
Thu 09:57:08 PM 42.5544 -73.8381 91° East 255 293 3,100 -350 Descending Boston Center
Thu 09:58:08 PM 42.5842 -73.7908 49° Northeast 170 196 3,100  Level Boston Center

Login

Don't have an account? Register now (free) for customized features, flight alerts, and more!